sensor_id;sensor_type;location;lat;lon;timestamp;temperature;humidity
15749;DHT22;7976;52.526;13.326;2024-03-23T00:53:25;8.30;99.90
15749;DHT22;7976;52.526;13.326;2024-03-23T00:55:52;8.30;99.90
15749;DHT22;7976;52.526;13.326;2024-03-23T00:58:18;8.30;99.90
15749;DHT22;7976;52.526;13.326;2024-03-23T01:00:45;8.40;99.90
15749;DHT22;7976;52.526;13.326;2024-03-23T01:03:11;8.40;99.90
15749;DHT22;7976;52.526;13.326;2024-03-23T01:05:37;8.40;99.90
15749;DHT22;7976;52.526;13.326;2024-03-23T01:08:04;8.40;99.90
15749;DHT22;7976;52.526;13.326;2024-03-23T01:10:32;8.40;99.90
15749;DHT22;7976;52.526;13.326;2024-03-23T01:12:58;8.40;99.90
15749;DHT22;7976;52.526;13.326;2024-03-23T01:15:25;8.40;99.90
15749;DHT22;7976;52.526;13.326;2024-03-23T01:17:51;8.40;99.90
15749;DHT22;7976;52.526;13.326;2024-03-23T01:20:18;8.50;99.90
15749;DHT22;7976;52.526;13.326;2024-03-23T01:22:43;8.50;99.90
15749;DHT22;7976;52.526;13.326;2024-03-23T01:25:10;8.50;99.90
15749;DHT22;7976;52.526;13.326;2024-03-23T01:27:37;8.50;99.90
15749;DHT22;7976;52.526;13.326;2024-03-23T01:30:05;8.60;99.90
15749;DHT22;7976;52.526;13.326;2024-03-23T01:32:32;8.60;99.90
15749;DHT22;7976;52.526;13.326;2024-03-23T01:34:59;8.60;99.90
15749;DHT22;7976;52.526;13.326;2024-03-23T01:37:25;8.60;99.90
15749;DHT22;7976;52.526;13.326;2024-03-23T01:39:52;8.60;99.90
15749;DHT22;7976;52.526;13.326;2024-03-23T01:42:18;8.60;99.90
15749;DHT22;7976;52.526;13.326;2024-03-23T01:44:46;8.60;99.90
15749;DHT22;7976;52.526;13.326;2024-03-23T01:47:11;8.60;99.90
15749;DHT22;7976;52.526;13.326;2024-03-23T01:49:38;8.60;99.90
15749;DHT22;7976;52.526;13.326;2024-03-23T01:52:04;8.60;99.90
15749;DHT22;7976;52.526;13.326;2024-03-23T01:54:32;8.60;99.90
15749;DHT22;7976;52.526;13.326;2024-03-23T01:56:58;8.50;99.90
15749;DHT22;7976;52.526;13.326;2024-03-23T01:59:25;8.50;99.90
15749;DHT22;7976;52.526;13.326;2024-03-23T02:01:52;8.50;99.90
15749;DHT22;7976;52.526;13.326;2024-03-23T02:04:21;8.50;99.90
15749;DHT22;7976;52.526;13.326;2024-03-23T02:06:47;8.50;99.90
15749;DHT22;7976;52.526;13.326;2024-03-23T02:09:14;8.50;99.90
15749;DHT22;7976;52.526;13.326;2024-03-23T02:11:40;8.50;99.90
15749;DHT22;7976;52.526;13.326;2024-03-23T02:14:07;8.50;99.90
15749;DHT22;7976;52.526;13.326;2024-03-23T02:16:33;8.50;99.90
15749;DHT22;7976;52.526;13.326;2024-03-23T02:19:02;8.50;99.90
15749;DHT22;7976;52.526;13.326;2024-03-23T02:21:28;8.40;99.90
15749;DHT22;7976;52.526;13.326;2024-03-23T02:23:58;8.50;99.90
15749;DHT22;7976;52.526;13.326;2024-03-23T02:26:24;8.40;99.90
15749;DHT22;7976;52.526;13.326;2024-03-23T02:28:51;8.40;99.90
15749;DHT22;7976;52.526;13.326;2024-03-23T02:31:17;8.40;99.90
15749;DHT22;7976;52.526;13.326;2024-03-23T02:33:44;8.40;99.90
15749;DHT22;7976;52.526;13.326;2024-03-23T02:36:09;8.40;99.90
15749;DHT22;7976;52.526;13.326;2024-03-23T02:38:36;8.40;99.90
15749;DHT22;7976;52.526;13.326;2024-03-23T02:41:04;8.30;99.90
15749;DHT22;7976;52.526;13.326;2024-03-23T02:43:31;8.40;99.90
15749;DHT22;7976;52.526;13.326;2024-03-23T02:45:57;8.40;99.90
15749;DHT22;7976;52.526;13.326;2024-03-23T02:48:24;8.40;99.90
15749;DHT22;7976;52.526;13.326;2024-03-23T02:50:50;8.40;99.90
15749;DHT22;7976;52.526;13.326;2024-03-23T02:53:16;8.40;99.90
15749;DHT22;7976;52.526;13.326;2024-03-23T02:55:42;8.40;99.90
15749;DHT22;7976;52.526;13.326;2024-03-23T02:58:11;8.30;99.90
15749;DHT22;7976;52.526;13.326;2024-03-23T03:00:37;8.30;99.90
15749;DHT22;7976;52.526;13.326;2024-03-23T03:03:04;8.30;99.90
15749;DHT22;7976;52.526;13.326;2024-03-23T03:05:30;8.30;99.90
15749;DHT22;7976;52.526;13.326;2024-03-23T03:07:57;8.20;99.90
15749;DHT22;7976;52.526;13.326;2024-03-23T03:10:23;8.20;99.90
15749;DHT22;7976;52.526;13.326;2024-03-23T03:12:49;8.20;99.90
15749;DHT22;7976;52.526;13.326;2024-03-23T03:15:17;8.10;99.90
15749;DHT22;7976;52.526;13.326;2024-03-23T03:17:44;8.10;99.90
15749;DHT22;7976;52.526;13.326;2024-03-23T03:20:10;8.10;99.90
15749;DHT22;7976;52.526;13.326;2024-03-23T03:22:39;8.10;99.90
15749;DHT22;7976;52.526;13.326;2024-03-23T03:25:05;8.10;99.90
15749;DHT22;7976;52.526;13.326;2024-03-23T03:27:33;8.10;99.90
15749;DHT22;7976;52.526;13.326;2024-03-23T03:29:59;8.10;99.90
15749;DHT22;7976;52.526;13.326;2024-03-23T03:32:29;8.00;99.90
15749;DHT22;7976;52.526;13.326;2024-03-23T03:34:55;7.90;99.90
15749;DHT22;7976;52.526;13.326;2024-03-23T03:37:22;7.90;99.90
15749;DHT22;7976;52.526;13.326;2024-03-23T03:39:48;7.90;99.90
15749;DHT22;7976;52.526;13.326;2024-03-23T03:42:14;7.90;99.90
15749;DHT22;7976;52.526;13.326;2024-03-23T03:44:40;7.80;99.90
15749;DHT22;7976;52.526;13.326;2024-03-23T03:47:07;7.90;99.90
15749;DHT22;7976;52.526;13.326;2024-03-23T03:49:35;7.90;99.90
15749;DHT22;7976;52.526;13.326;2024-03-23T03:52:01;7.80;99.90
15749;DHT22;7976;52.526;13.326;2024-03-23T03:54:28;7.80;99.90
15749;DHT22;7976;52.526;13.326;2024-03-23T03:56:54;7.80;99.90
15749;DHT22;7976;52.526;13.326;2024-03-23T03:59:20;7.80;99.90
15749;DHT22;7976;52.526;13.326;2024-03-23T04:01:47;7.80;99.90
15749;DHT22;7976;52.526;13.326;2024-03-23T04:04:14;7.70;99.90
15749;DHT22;7976;52.526;13.326;2024-03-23T04:06:43;7.70;99.90
15749;DHT22;7976;52.526;13.326;2024-03-23T04:09:10;7.70;99.90
15749;DHT22;7976;52.526;13.326;2024-03-23T04:11:36;7.50;99.90
15749;DHT22;7976;52.526;13.326;2024-03-23T04:14:02;7.50;99.90
15749;DHT22;7976;52.526;13.326;2024-03-23T04:16:29;7.50;99.90
15749;DHT22;7976;52.526;13.326;2024-03-23T04:19:00;7.40;99.90
15749;DHT22;7976;52.526;13.326;2024-03-23T04:21:26;7.30;99.90
15749;DHT22;7976;52.526;13.326;2024-03-23T04:23:54;7.30;99.90
15749;DHT22;7976;52.526;13.326;2024-03-23T04:26:20;7.20;99.90
15749;DHT22;7976;52.526;13.326;2024-03-23T04:28:47;7.20;99.90
15749;DHT22;7976;52.526;13.326;2024-03-23T04:31:13;7.10;99.90
15749;DHT22;7976;52.526;13.326;2024-03-23T04:33:39;7.10;99.90
15749;DHT22;7976;52.526;13.326;2024-03-23T04:36:06;7.00;99.90
15749;DHT22;7976;52.526;13.326;2024-03-23T04:38:33;7.10;99.90
15749;DHT22;7976;52.526;13.326;2024-03-23T04:41:01;7.10;99.90
15749;DHT22;7976;52.526;13.326;2024-03-23T04:43:28;7.10;99.90
15749;DHT22;7976;52.526;13.326;2024-03-23T04:45:55;7.20;99.90
15749;DHT22;7976;52.526;13.326;2024-03-23T04:48:22;7.20;99.90
15749;DHT22;7976;52.526;13.326;2024-03-23T04:50:54;7.20;99.90
15749;DHT22;7976;52.526;13.326;2024-03-23T04:53:23;7.30;99.90
15749;DHT22;7976;52.526;13.326;2024-03-23T04:55:54;7.30;99.90
15749;DHT22;7976;52.526;13.326;2024-03-23T04:58:23;7.30;99.90
15749;DHT22;7976;52.526;13.326;2024-03-23T05:00:53;7.30;99.90
15749;DHT22;7976;52.526;13.326;2024-03-23T05:03:21;7.30;99.90
15749;DHT22;7976;52.526;13.326;2024-03-23T05:05:47;7.20;99.90
15749;DHT22;7976;52.526;13.326;2024-03-23T05:08:14;7.20;99.90
15749;DHT22;7976;52.526;13.326;2024-03-23T05:10:41;7.20;99.90
15749;DHT22;7976;52.526;13.326;2024-03-23T05:13:07;7.20;99.90
15749;DHT22;7976;52.526;13.326;2024-03-23T05:15:36;7.20;99.90
15749;DHT22;7976;52.526;13.326;2024-03-23T05:18:02;7.20;99.90
15749;DHT22;7976;52.526;13.326;2024-03-23T05:20:30;7.30;99.90
15749;DHT22;7976;52.526;13.326;2024-03-23T05:22:56;7.30;99.90
15749;DHT22;7976;52.526;13.326;2024-03-23T05:25:23;7.30;99.90
15749;DHT22;7976;52.526;13.326;2024-03-23T05:27:49;7.30;99.90
15749;DHT22;7976;52.526;13.326;2024-03-23T05:30:16;7.30;99.90
15749;DHT22;7976;52.526;13.326;2024-03-23T05:32:43;7.30;99.90
15749;DHT22;7976;52.526;13.326;2024-03-23T05:35:10;7.20;99.90
15749;DHT22;7976;52.526;13.326;2024-03-23T05:37:37;7.20;99.90
15749;DHT22;7976;52.526;13.326;2024-03-23T05:40:04;7.20;99.90
15749;DHT22;7976;52.526;13.326;2024-03-23T05:42:31;7.20;99.90
15749;DHT22;7976;52.526;13.326;2024-03-23T05:44:58;7.20;99.90
15749;DHT22;7976;52.526;13.326;2024-03-23T05:47:23;7.20;99.90
15749;DHT22;7976;52.526;13.326;2024-03-23T05:49:51;7.20;99.90
15749;DHT22;7976;52.526;13.326;2024-03-23T05:52:17;7.20;99.90
15749;DHT22;7976;52.526;13.326;2024-03-23T05:54:46;7.20;99.90
15749;DHT22;7976;52.526;13.326;2024-03-23T05:57:12;7.20;99.90
15749;DHT22;7976;52.526;13.326;2024-03-23T05:59:39;7.20;99.90
15749;DHT22;7976;52.526;13.326;2024-03-23T06:02:05;7.20;99.90
15749;DHT22;7976;52.526;13.326;2024-03-23T06:04:32;7.20;99.90
15749;DHT22;7976;52.526;13.326;2024-03-23T06:07:00;7.20;99.90
15749;DHT22;7976;52.526;13.326;2024-03-23T06:09:27;7.20;99.90
15749;DHT22;7976;52.526;13.326;2024-03-23T06:11:52;7.20;99.90
15749;DHT22;7976;52.526;13.326;2024-03-23T06:14:19;7.20;99.90
15749;DHT22;7976;52.526;13.326;2024-03-23T06:16:46;7.20;99.90
15749;DHT22;7976;52.526;13.326;2024-03-23T06:19:13;7.30;99.90
15749;DHT22;7976;52.526;13.326;2024-03-23T06:21:43;7.30;99.90
15749;DHT22;7976;52.526;13.326;2024-03-23T06:24:11;7.30;99.90
15749;DHT22;7976;52.526;13.326;2024-03-23T06:26:38;7.40;99.90
15749;DHT22;7976;52.526;13.326;2024-03-23T06:29:04;7.40;99.90
15749;DHT22;7976;52.526;13.326;2024-03-23T06:31:31;7.40;99.90
15749;DHT22;7976;52.526;13.326;2024-03-23T06:33:57;7.40;99.90
15749;DHT22;7976;52.526;13.326;2024-03-23T06:36:24;7.40;99.90
15749;DHT22;7976;52.526;13.326;2024-03-23T06:38:50;7.40;99.90
15749;DHT22;7976;52.526;13.326;2024-03-23T06:41:19;7.30;99.90
15749;DHT22;7976;52.526;13.326;2024-03-23T06:43:45;7.30;99.90
15749;DHT22;7976;52.526;13.326;2024-03-23T06:46:12;7.30;99.90
15749;DHT22;7976;52.526;13.326;2024-03-23T06:48:38;7.30;99.90
15749;DHT22;7976;52.526;13.326;2024-03-23T06:51:04;7.30;99.90
15749;DHT22;7976;52.526;13.326;2024-03-23T06:53:32;7.40;99.90
15749;DHT22;7976;52.526;13.326;2024-03-23T06:55:58;7.30;99.90
15749;DHT22;7976;52.526;13.326;2024-03-23T06:58:26;7.40;99.90
15749;DHT22;7976;52.526;13.326;2024-03-23T07:00:53;7.40;99.90
15749;DHT22;7976;52.526;13.326;2024-03-23T07:03:19;7.40;99.90
15749;DHT22;7976;52.526;13.326;2024-03-23T07:05:48;7.40;99.90
15749;DHT22;7976;52.526;13.326;2024-03-23T07:08:14;7.40;99.90
15749;DHT22;7976;52.526;13.326;2024-03-23T07:10:46;7.50;99.90
15749;DHT22;7976;52.526;13.326;2024-03-23T07:13:12;7.40;99.90
15749;DHT22;7976;52.526;13.326;2024-03-23T07:15:40;7.40;99.90
15749;DHT22;7976;52.526;13.326;2024-03-23T07:18:06;7.40;99.90
15749;DHT22;7976;52.526;13.326;2024-03-23T07:20:33;7.30;99.90
15749;DHT22;7976;52.526;13.326;2024-03-23T07:22:59;7.30;99.90
15749;DHT22;7976;52.526;13.326;2024-03-23T07:25:25;7.20;99.90
15749;DHT22;7976;52.526;13.326;2024-03-23T07:27:53;7.30;99.90
15749;DHT22;7976;52.526;13.326;2024-03-23T07:30:20;7.30;99.90
15749;DHT22;7976;52.526;13.326;2024-03-23T07:32:47;7.30;99.90
15749;DHT22;7976;52.526;13.326;2024-03-23T07:35:14;7.30;99.90
15749;DHT22;7976;52.526;13.326;2024-03-23T07:37:41;7.30;99.90
15749;DHT22;7976;52.526;13.326;2024-03-23T07:40:09;7.40;99.90
15749;DHT22;7976;52.526;13.326;2024-03-23T07:42:35;7.40;99.90
15749;DHT22;7976;52.526;13.326;2024-03-23T07:45:02;7.50;99.90
15749;DHT22;7976;52.526;13.326;2024-03-23T07:47:29;7.50;99.90
15749;DHT22;7976;52.526;13.326;2024-03-23T07:49:57;7.40;99.90
15749;DHT22;7976;52.526;13.326;2024-03-23T07:52:23;7.30;99.90
15749;DHT22;7976;52.526;13.326;2024-03-23T07:54:50;7.20;99.90
15749;DHT22;7976;52.526;13.326;2024-03-23T07:57:16;7.10;99.90
15749;DHT22;7976;52.526;13.326;2024-03-23T07:59:42;7.20;99.90
15749;DHT22;7976;52.526;13.326;2024-03-23T08:02:08;7.20;99.90
15749;DHT22;7976;52.526;13.326;2024-03-23T08:04:36;7.20;99.90
15749;DHT22;7976;52.526;13.326;2024-03-23T08:07:03;7.20;99.90
15749;DHT22;7976;52.526;13.326;2024-03-23T08:09:30;7.30;99.90
15749;DHT22;7976;52.526;13.326;2024-03-23T08:11:56;7.30;99.90
15749;DHT22;7976;52.526;13.326;2024-03-23T08:14:23;7.20;99.90
15749;DHT22;7976;52.526;13.326;2024-03-23T08:16:49;7.10;99.90
15749;DHT22;7976;52.526;13.326;2024-03-23T08:19:16;7.00;99.90
15749;DHT22;7976;52.526;13.326;2024-03-23T08:21:42;7.00;99.90
15749;DHT22;7976;52.526;13.326;2024-03-23T08:24:10;6.90;99.90
15749;DHT22;7976;52.526;13.326;2024-03-23T08:26:36;6.80;99.90
15749;DHT22;7976;52.526;13.326;2024-03-23T08:29:04;6.70;99.90
15749;DHT22;7976;52.526;13.326;2024-03-23T08:31:30;6.70;99.90
15749;DHT22;7976;52.526;13.326;2024-03-23T08:33:57;6.70;99.90
15749;DHT22;7976;52.526;13.326;2024-03-23T08:36:23;6.70;99.90
15749;DHT22;7976;52.526;13.326;2024-03-23T08:38:50;6.70;99.90
15749;DHT22;7976;52.526;13.326;2024-03-23T08:41:20;6.70;99.90
15749;DHT22;7976;52.526;13.326;2024-03-23T08:43:47;6.80;99.90
15749;DHT22;7976;52.526;13.326;2024-03-23T08:46:14;6.80;99.90
15749;DHT22;7976;52.526;13.326;2024-03-23T08:48:43;6.70;99.90
15749;DHT22;7976;52.526;13.326;2024-03-23T08:51:11;6.70;99.90
15749;DHT22;7976;52.526;13.326;2024-03-23T08:53:40;6.70;99.90
15749;DHT22;7976;52.526;13.326;2024-03-23T08:56:07;6.70;99.90
15749;DHT22;7976;52.526;13.326;2024-03-23T08:58:37;6.60;99.90
15749;DHT22;7976;52.526;13.326;2024-03-23T09:01:06;6.50;99.90
15749;DHT22;7976;52.526;13.326;2024-03-23T09:03:34;6.50;99.90
15749;DHT22;7976;52.526;13.326;2024-03-23T09:06:02;6.50;99.90
15749;DHT22;7976;52.526;13.326;2024-03-23T09:08:33;6.30;99.90
15749;DHT22;7976;52.526;13.326;2024-03-23T09:11:04;6.10;99.90
15749;DHT22;7976;52.526;13.326;2024-03-23T09:13:32;5.90;99.90
15749;DHT22;7976;52.526;13.326;2024-03-23T09:16:00;5.80;99.90
15749;DHT22;7976;52.526;13.326;2024-03-23T09:18:27;5.80;99.90
15749;DHT22;7976;52.526;13.326;2024-03-23T09:20:53;5.70;99.90
15749;DHT22;7976;52.526;13.326;2024-03-23T09:23:20;5.70;99.90
15749;DHT22;7976;52.526;13.326;2024-03-23T09:25:47;5.70;99.90
15749;DHT22;7976;52.526;13.326;2024-03-23T09:28:14;5.70;99.90
15749;DHT22;7976;52.526;13.326;2024-03-23T09:30:41;5.80;99.90
15749;DHT22;7976;52.526;13.326;2024-03-23T09:33:10;5.80;99.90
15749;DHT22;7976;52.526;13.326;2024-03-23T09:35:37;5.80;99.90
15749;DHT22;7976;52.526;13.326;2024-03-23T09:38:04;5.90;99.90
15749;DHT22;7976;52.526;13.326;2024-03-23T09:40:31;5.90;99.90
15749;DHT22;7976;52.526;13.326;2024-03-23T09:42:58;5.90;99.90
15749;DHT22;7976;52.526;13.326;2024-03-23T09:45:27;5.90;99.90
15749;DHT22;7976;52.526;13.326;2024-03-23T09:47:55;5.90;99.90
15749;DHT22;7976;52.526;13.326;2024-03-23T09:50:24;5.90;99.90
15749;DHT22;7976;52.526;13.326;2024-03-23T09:52:56;5.90;99.90
15749;DHT22;7976;52.526;13.326;2024-03-23T09:55:22;5.90;99.90
15749;DHT22;7976;52.526;13.326;2024-03-23T09:57:49;5.80;99.90
15749;DHT22;7976;52.526;13.326;2024-03-23T10:00:16;5.80;99.90
15749;DHT22;7976;52.526;13.326;2024-03-23T10:02:45;5.70;99.90
15749;DHT22;7976;52.526;13.326;2024-03-23T10:05:20;5.70;99.90
15749;DHT22;7976;52.526;13.326;2024-03-23T10:07:49;5.70;99.90
15749;DHT22;7976;52.526;13.326;2024-03-23T10:10:16;5.60;99.90
15749;DHT22;7976;52.526;13.326;2024-03-23T10:12:45;5.60;99.90
15749;DHT22;7976;52.526;13.326;2024-03-23T10:15:18;5.60;99.90
15749;DHT22;7976;52.526;13.326;2024-03-23T10:17:46;5.60;99.90
15749;DHT22;7976;52.526;13.326;2024-03-23T10:20:12;5.50;99.90
15749;DHT22;7976;52.526;13.326;2024-03-23T10:22:39;5.50;99.90
15749;DHT22;7976;52.526;13.326;2024-03-23T10:25:10;5.50;99.90
15749;DHT22;7976;52.526;13.326;2024-03-23T10:27:39;5.50;99.90
15749;DHT22;7976;52.526;13.326;2024-03-23T10:30:09;5.50;99.90
15749;DHT22;7976;52.526;13.326;2024-03-23T10:32:38;5.50;99.90
15749;DHT22;7976;52.526;13.326;2024-03-23T10:35:14;5.60;99.90
15749;DHT22;7976;52.526;13.326;2024-03-23T10:37:42;5.80;99.90
15749;DHT22;7976;52.526;13.326;2024-03-23T10:40:12;5.80;99.90
15749;DHT22;7976;52.526;13.326;2024-03-23T10:42:41;5.90;99.90
15749;DHT22;7976;52.526;13.326;2024-03-23T10:45:10;6.00;99.90
15749;DHT22;7976;52.526;13.326;2024-03-23T10:47:38;6.00;99.90
15749;DHT22;7976;52.526;13.326;2024-03-23T10:50:04;6.00;99.90
15749;DHT22;7976;52.526;13.326;2024-03-23T10:52:32;6.10;99.90
15749;DHT22;7976;52.526;13.326;2024-03-23T10:54:59;6.10;99.90
15749;DHT22;7976;52.526;13.326;2024-03-23T10:57:34;6.10;99.90
15749;DHT22;7976;52.526;13.326;2024-03-23T11:00:07;6.10;99.90
15749;DHT22;7976;52.526;13.326;2024-03-23T11:02:36;6.20;99.90
15749;DHT22;7976;52.526;13.326;2024-03-23T11:05:02;6.20;99.90
15749;DHT22;7976;52.526;13.326;2024-03-23T11:07:55;6.30;99.90
15749;DHT22;7976;52.526;13.326;2024-03-23T11:10:28;6.40;99.90
15749;DHT22;7976;52.526;13.326;2024-03-23T11:12:57;6.40;99.90
15749;DHT22;7976;52.526;13.326;2024-03-23T11:15:23;6.40;99.90
15749;DHT22;7976;52.526;13.326;2024-03-23T11:18:04;6.40;99.90
15749;DHT22;7976;52.526;13.326;2024-03-23T11:20:34;6.40;99.90
15749;DHT22;7976;52.526;13.326;2024-03-23T11:23:02;6.50;99.90
15749;DHT22;7976;52.526;13.326;2024-03-23T11:25:30;6.50;99.90
15749;DHT22;7976;52.526;13.326;2024-03-23T11:28:11;6.60;99.90
15749;DHT22;7976;52.526;13.326;2024-03-23T11:30:38;6.60;99.90
15749;DHT22;7976;52.526;13.326;2024-03-23T11:33:08;6.70;99.90
15749;DHT22;7976;52.526;13.326;2024-03-23T11:35:38;6.80;99.90
15749;DHT22;7976;52.526;13.326;2024-03-23T11:38:20;6.90;99.90
15749;DHT22;7976;52.526;13.326;2024-03-23T11:40:54;7.10;99.90
15749;DHT22;7976;52.526;13.326;2024-03-23T11:43:26;7.20;99.90
15749;DHT22;7976;52.526;13.326;2024-03-23T11:45:52;7.30;99.90
15749;DHT22;7976;52.526;13.326;2024-03-23T11:48:22;7.40;99.90
15749;DHT22;7976;52.526;13.326;2024-03-23T11:50:51;7.60;99.90
15749;DHT22;7976;52.526;13.326;2024-03-23T11:53:25;7.80;99.90
15749;DHT22;7976;52.526;13.326;2024-03-23T11:55:56;8.00;99.90
15749;DHT22;7976;52.526;13.326;2024-03-23T11:58:28;8.00;99.90
15749;DHT22;7976;52.526;13.326;2024-03-23T12:00:59;8.10;99.90
15749;DHT22;7976;52.526;13.326;2024-03-23T12:03:30;8.10;99.90
15749;DHT22;7976;52.526;13.326;2024-03-23T12:05:58;8.00;99.90
15749;DHT22;7976;52.526;13.326;2024-03-23T12:08:29;7.90;99.90
15749;DHT22;7976;52.526;13.326;2024-03-23T12:11:05;7.90;99.90
15749;DHT22;7976;52.526;13.326;2024-03-23T12:13:34;7.90;99.90
15749;DHT22;7976;52.526;13.326;2024-03-23T12:16:09;8.00;99.90
15749;DHT22;7976;52.526;13.326;2024-03-23T12:18:37;7.90;99.90
15749;DHT22;7976;52.526;13.326;2024-03-23T12:21:04;7.80;99.90
15749;DHT22;7976;52.526;13.326;2024-03-23T12:23:30;7.50;99.90
15749;DHT22;7976;52.526;13.326;2024-03-23T12:25:58;7.40;99.90
15749;DHT22;7976;52.526;13.326;2024-03-23T12:28:25;7.50;99.90
15749;DHT22;7976;52.526;13.326;2024-03-23T12:30:52;7.60;99.90
15749;DHT22;7976;52.526;13.326;2024-03-23T12:33:20;7.60;99.90
15749;DHT22;7976;52.526;13.326;2024-03-23T12:35:46;7.70;99.90
15749;DHT22;7976;52.526;13.326;2024-03-23T12:38:14;7.80;99.90
15749;DHT22;7976;52.526;13.326;2024-03-23T12:40:40;7.90;99.90
15749;DHT22;7976;52.526;13.326;2024-03-23T12:43:09;7.90;99.90
15749;DHT22;7976;52.526;13.326;2024-03-23T12:45:35;7.80;99.90
15749;DHT22;7976;52.526;13.326;2024-03-23T12:48:05;7.70;99.90
15749;DHT22;7976;52.526;13.326;2024-03-23T12:50:31;7.60;99.90
15749;DHT22;7976;52.526;13.326;2024-03-23T12:52:59;7.50;99.90
15749;DHT22;7976;52.526;13.326;2024-03-23T12:55:25;7.50;99.90
15749;DHT22;7976;52.526;13.326;2024-03-23T12:57:52;7.60;99.90
15749;DHT22;7976;52.526;13.326;2024-03-23T13:00:18;7.60;99.90
15749;DHT22;7976;52.526;13.326;2024-03-23T13:02:45;7.70;99.90
15749;DHT22;7976;52.526;13.326;2024-03-23T13:05:13;7.70;99.90
15749;DHT22;7976;52.526;13.326;2024-03-23T13:07:40;7.90;99.90
15749;DHT22;7976;52.526;13.326;2024-03-23T13:10:08;8.00;99.90
15749;DHT22;7976;52.526;13.326;2024-03-23T13:12:36;8.10;99.90
15749;DHT22;7976;52.526;13.326;2024-03-23T13:15:02;8.20;99.90
15749;DHT22;7976;52.526;13.326;2024-03-23T13:17:30;8.30;99.90
15749;DHT22;7976;52.526;13.326;2024-03-23T13:19:57;8.40;99.90
15749;DHT22;7976;52.526;13.326;2024-03-23T13:22:34;8.50;99.90
15749;DHT22;7976;52.526;13.326;2024-03-23T13:25:00;8.80;99.90
15749;DHT22;7976;52.526;13.326;2024-03-23T13:27:28;9.00;99.90
15749;DHT22;7976;52.526;13.326;2024-03-23T13:29:54;9.20;99.90
15749;DHT22;7976;52.526;13.326;2024-03-23T13:32:21;9.20;99.90
15749;DHT22;7976;52.526;13.326;2024-03-23T13:34:47;9.20;99.90
15749;DHT22;7976;52.526;13.326;2024-03-23T13:37:15;9.10;99.90
15749;DHT22;7976;52.526;13.326;2024-03-23T13:39:43;9.00;99.90
15749;DHT22;7976;52.526;13.326;2024-03-23T13:42:10;9.00;99.90
15749;DHT22;7976;52.526;13.326;2024-03-23T13:44:38;8.90;99.90
15749;DHT22;7976;52.526;13.326;2024-03-23T13:47:05;8.90;99.90
15749;DHT22;7976;52.526;13.326;2024-03-23T13:49:31;9.10;99.90
15749;DHT22;7976;52.526;13.326;2024-03-23T13:51:59;9.30;99.90
15749;DHT22;7976;52.526;13.326;2024-03-23T13:54:27;9.60;99.90
15749;DHT22;7976;52.526;13.326;2024-03-23T13:56:56;9.90;99.90
15749;DHT22;7976;52.526;13.326;2024-03-23T13:59:22;10.00;99.90
15749;DHT22;7976;52.526;13.326;2024-03-23T14:01:49;9.90;99.90
15749;DHT22;7976;52.526;13.326;2024-03-23T14:04:16;9.80;99.90
15749;DHT22;7976;52.526;13.326;2024-03-23T14:06:46;9.70;99.90
15749;DHT22;7976;52.526;13.326;2024-03-23T14:09:14;9.60;99.90
15749;DHT22;7976;52.526;13.326;2024-03-23T14:11:46;9.60;99.90
15749;DHT22;7976;52.526;13.326;2024-03-23T14:14:14;9.60;99.90
15749;DHT22;7976;52.526;13.326;2024-03-23T14:16:43;9.50;99.90
15749;DHT22;7976;52.526;13.326;2024-03-23T14:19:09;9.50;99.90
15749;DHT22;7976;52.526;13.326;2024-03-23T14:21:36;9.40;99.90
15749;DHT22;7976;52.526;13.326;2024-03-23T14:24:04;9.30;99.90
15749;DHT22;7976;52.526;13.326;2024-03-23T14:26:32;9.10;99.90
15749;DHT22;7976;52.526;13.326;2024-03-23T14:28:58;8.90;99.90
15749;DHT22;7976;52.526;13.326;2024-03-23T14:31:27;8.80;99.90
15749;DHT22;7976;52.526;13.326;2024-03-23T14:33:53;8.60;99.90
15749;DHT22;7976;52.526;13.326;2024-03-23T14:36:20;8.60;99.90
15749;DHT22;7976;52.526;13.326;2024-03-23T14:38:47;8.40;99.90
15749;DHT22;7976;52.526;13.326;2024-03-23T14:41:15;8.40;99.90
15749;DHT22;7976;52.526;13.326;2024-03-23T14:43:41;8.30;99.90
15749;DHT22;7976;52.526;13.326;2024-03-23T14:46:10;8.20;99.90
15749;DHT22;7976;52.526;13.326;2024-03-23T14:48:40;8.10;99.90
15749;DHT22;7976;52.526;13.326;2024-03-23T14:51:08;7.90;99.90
15749;DHT22;7976;52.526;13.326;2024-03-23T14:53:35;7.50;99.90
15749;DHT22;7976;52.526;13.326;2024-03-23T14:56:06;7.10;99.90
15749;DHT22;7976;52.526;13.326;2024-03-23T14:58:33;6.90;99.90
15749;DHT22;7976;52.526;13.326;2024-03-23T15:01:01;6.80;99.90
15749;DHT22;7976;52.526;13.326;2024-03-23T15:03:27;6.70;99.90
15749;DHT22;7976;52.526;13.326;2024-03-23T15:05:57;6.70;99.90
15749;DHT22;7976;52.526;13.326;2024-03-23T15:08:25;6.80;99.90
15749;DHT22;7976;52.526;13.326;2024-03-23T15:10:53;7.00;99.90
15749;DHT22;7976;52.526;13.326;2024-03-23T15:13:19;7.20;99.90
15749;DHT22;7976;52.526;13.326;2024-03-23T15:15:48;7.30;99.90
15749;DHT22;7976;52.526;13.326;2024-03-23T15:18:16;7.30;99.90
15749;DHT22;7976;52.526;13.326;2024-03-23T15:20:52;7.30;99.90
15749;DHT22;7976;52.526;13.326;2024-03-23T15:23:26;7.30;99.90
15749;DHT22;7976;52.526;13.326;2024-03-23T15:25:55;7.30;99.90
15749;DHT22;7976;52.526;13.326;2024-03-23T15:28:21;7.10;99.90
15749;DHT22;7976;52.526;13.326;2024-03-23T15:30:48;7.00;99.90
15749;DHT22;7976;52.526;13.326;2024-03-23T15:33:14;7.00;99.90
15749;DHT22;7976;52.526;13.326;2024-03-23T15:35:41;7.00;99.90
15749;DHT22;7976;52.526;13.326;2024-03-23T15:38:07;6.90;99.90
15749;DHT22;7976;52.526;13.326;2024-03-23T15:40:36;6.90;99.90
15749;DHT22;7976;52.526;13.326;2024-03-23T15:43:02;6.90;99.90
15749;DHT22;7976;52.526;13.326;2024-03-23T15:45:30;7.00;99.90
15749;DHT22;7976;52.526;13.326;2024-03-23T15:47:55;7.00;99.90
15749;DHT22;7976;52.526;13.326;2024-03-23T15:50:22;7.10;99.90
15749;DHT22;7976;52.526;13.326;2024-03-23T15:52:48;7.10;99.90
15749;DHT22;7976;52.526;13.326;2024-03-23T15:55:16;7.10;99.90
15749;DHT22;7976;52.526;13.326;2024-03-23T15:57:44;7.10;99.90
15749;DHT22;7976;52.526;13.326;2024-03-23T16:00:12;7.00;99.90
15749;DHT22;7976;52.526;13.326;2024-03-23T16:02:38;7.00;99.90
15749;DHT22;7976;52.526;13.326;2024-03-23T16:05:06;6.90;99.90
15749;DHT22;7976;52.526;13.326;2024-03-23T16:07:36;6.90;99.90
15749;DHT22;7976;52.526;13.326;2024-03-23T16:10:05;6.90;99.90
15749;DHT22;7976;52.526;13.326;2024-03-23T16:12:34;6.90;99.90
15749;DHT22;7976;52.526;13.326;2024-03-23T16:15:04;6.90;99.90
15749;DHT22;7976;52.526;13.326;2024-03-23T16:17:31;6.90;99.90
15749;DHT22;7976;52.526;13.326;2024-03-23T16:20:01;6.90;99.90
15749;DHT22;7976;52.526;13.326;2024-03-23T16:22:28;6.90;99.90
15749;DHT22;7976;52.526;13.326;2024-03-23T16:24:55;6.90;99.90
15749;DHT22;7976;52.526;13.326;2024-03-23T16:27:21;6.80;99.90
15749;DHT22;7976;52.526;13.326;2024-03-23T16:29:47;6.80;99.90
15749;DHT22;7976;52.526;13.326;2024-03-23T16:32:15;6.70;99.90
15749;DHT22;7976;52.526;13.326;2024-03-23T16:34:42;6.70;99.90
15749;DHT22;7976;52.526;13.326;2024-03-23T16:37:08;6.70;99.90
15749;DHT22;7976;52.526;13.326;2024-03-23T16:39:36;6.70;99.90